Aeroporto :
LOGIN :

Iscrizione | Disclaimer

   EN    FR    IT 

 










Sommario :    VFR   VFR Marginale   IFR   IFR Intensivo   IFR Molto Intensivo
Visibilità : 
Base nubi : 
>= 8 km
>= 3000ft
5 / 8 km
1000 / 3000 ft
1500m / 5 km
500 / 1000 ft
800 / 1500m
200 / 500 ft
< 800m
< 200 ft
Simboli :   Temporali  Nebbia  Neve Forte  Precipitazioni Forti  Vento > 20 kt
SIGMETs :   Varie  Temporali  Ghiacco  Turbolenza  Onda orograficha  Ceneri Vulcaniche






- Altitudine del aeroporto : 0 ft


ENOA - Oseberg A Platform

ULTIMO METAR :
  • 250420Z 23025KT 9999 -SHRA SCT010 BKN035 07/04 Q1006 W///S5

METARs OBSOLETI :
  • 250350Z 23020KT 9999 SCT010 BKN035 07/05 Q1007 W///S5
  • 250320Z 22017KT 9999 SCT010 BKN040 06/04 Q1007 W///S5
  • 250250Z 23019KT 9999 -SHRA SCT010 BKN040 06/04 Q1008 W///S5
  • 250150Z 24016KT 9999 FEW020 SCT035 BKN060 07/03 Q1009 W///S5

TAF ENOA
Valido dal 25 a 03 ore il 26 a 03 ore UTC


2503/2603 22020KT 9999 FEW015 SCT030
TEMPO 2503/2603 BKN008
BECMG 2503/2506 22030KT



MetMap, La meteo Aeronautica in un colpo d'occhio ! - Copyright ORBIFLY Dicembre 2007 - Disclaimer

ORBIFLY MET'MAP TEAM :

Programmazione e sviluppo : Alexandra Zaïnal
Concezione : Baudouin d'Aumeries
Aiuto per la programmazione : Marc-Olivier Méhu
Supporto tecnico e logistico : Manuel Goepfert
Aiuto per la traduzione : Arnaldo La Scala

Contatto : metmap@orbifly.com




FONTI E CREDITI :

   NOAA